createdAt,value
2022-11-05T00:02:57.946Z,10.35
2022-11-05T00:08:21.817Z,10.37
2022-11-05T00:13:50.794Z,10.40
2022-11-05T00:19:08.056Z,10.45
2022-11-05T00:24:28.689Z,10.50
2022-11-05T00:29:30.635Z,10.53
2022-11-05T00:34:32.728Z,10.54
2022-11-05T00:39:34.625Z,10.51
2022-11-05T00:44:55.296Z,10.46
2022-11-05T00:49:57.110Z,10.42
2022-11-05T00:54:59.025Z,10.37
2022-11-05T01:00:00.878Z,10.33
2022-11-05T01:05:03.053Z,10.32
2022-11-05T01:10:05.663Z,10.28
2022-11-05T01:15:08.139Z,10.22
2022-11-05T01:20:11.106Z,10.20
2022-11-05T01:25:13.018Z,10.21
2022-11-05T01:30:15.212Z,10.24
2022-11-05T01:35:18.311Z,10.19
2022-11-05T01:40:22.079Z,10.10
2022-11-05T01:45:28.480Z,10.04
2022-11-05T01:50:49.216Z,9.96
2022-11-05T01:55:57.713Z,9.90
2022-11-05T02:00:59.531Z,9.86
2022-11-05T02:06:03.947Z,9.84
2022-11-05T02:11:05.839Z,9.86
2022-11-05T02:16:43.781Z,9.90
2022-11-05T02:22:15.747Z,9.95
2022-11-05T02:27:36.385Z,9.96
2022-11-05T02:33:35.571Z,9.96
2022-11-05T02:39:07.397Z,10.01
2022-11-05T02:44:45.210Z,10.07
2022-11-05T02:50:04.492Z,10.09
2022-11-05T02:55:25.310Z,10.10
2022-11-05T03:00:43.312Z,10.07
2022-11-05T03:05:59.078Z,10.01
2022-11-05T03:11:13.344Z,9.93
2022-11-05T03:16:40.506Z,9.88
2022-11-05T03:21:49.944Z,9.80
2022-11-05T03:27:02.598Z,9.73
2022-11-05T03:32:07.029Z,9.68
2022-11-05T03:37:10.971Z,9.65
2022-11-05T03:42:17.111Z,9.63
2022-11-05T03:47:26.486Z,9.60
2022-11-05T03:52:33.506Z,9.56
2022-11-05T03:57:39.438Z,9.49
2022-11-05T04:02:41.942Z,9.40
2022-11-05T04:08:03.795Z,9.29
2022-11-05T04:13:24.224Z,9.17
2022-11-05T04:18:26.184Z,9.06
2022-11-05T05:27:47.390Z,8.77
2022-11-05T05:32:49.577Z,8.85
2022-11-05T05:37:55.682Z,8.83
2022-11-05T05:42:57.573Z,8.79
2022-11-05T05:47:59.342Z,8.74
2022-11-05T05:53:01.300Z,8.70
2022-11-05T05:58:03.209Z,8.70
2022-11-05T06:03:06.784Z,8.72
2022-11-05T06:08:08.711Z,8.72
2022-11-05T06:13:11.072Z,8.71
2022-11-05T06:18:13.252Z,8.71
2022-11-05T06:23:15.158Z,8.72
2022-11-05T06:28:16.919Z,8.74
2022-11-05T06:33:18.808Z,8.78
2022-11-05T06:38:20.987Z,8.81
2022-11-05T06:43:22.867Z,8.81
2022-11-05T06:48:25.671Z,8.83
2022-11-05T06:53:27.852Z,8.86
2022-11-05T06:58:31.162Z,8.90
2022-11-05T07:03:32.979Z,8.93
2022-11-05T07:08:36.220Z,8.94
2022-11-05T07:13:38.263Z,8.98
2022-11-05T07:18:40.104Z,9.00
2022-11-05T07:23:41.989Z,9.01
2022-11-05T07:28:43.750Z,9.04
2022-11-05T07:33:45.635Z,9.09
2022-11-05T07:38:47.407Z,9.08
2022-11-05T07:43:49.289Z,9.03
2022-11-05T07:48:51.061Z,9.03
2022-11-05T07:53:52.833Z,9.05
2022-11-05T07:58:54.715Z,9.06
2022-11-05T08:03:56.593Z,9.11
2022-11-05T08:08:58.331Z,9.18
2022-11-05T08:14:00.084Z,9.19
2022-11-05T08:19:01.914Z,9.20
2022-11-05T08:24:03.858Z,9.17
2022-11-05T08:42:58.245Z,9.45
2022-11-05T08:48:05.020Z,9.45
2022-11-05T08:53:08.322Z,9.39
2022-11-05T08:58:15.517Z,9.40
2022-11-05T09:03:18.110Z,9.40
2022-11-05T09:08:19.976Z,9.41
2022-11-05T09:13:23.053Z,9.45
2022-11-05T09:18:25.166Z,9.46
2022-11-05T09:23:26.938Z,9.47
2022-11-05T09:28:28.916Z,9.52
2022-11-05T09:33:31.137Z,9.51
2022-11-05T09:38:35.052Z,9.50
2022-11-05T09:43:42.232Z,9.51
2022-11-05T09:48:49.235Z,9.55
2022-11-05T09:53:51.906Z,9.56
2022-11-05T09:59:02.417Z,9.55
2022-11-05T10:04:14.338Z,9.54
2022-11-05T10:09:40.356Z,9.52
2022-11-05T10:14:47.370Z,9.55
2022-11-05T10:20:02.707Z,9.57
2022-11-05T10:25:17.143Z,9.61
2022-11-05T10:30:20.232Z,9.66
2022-11-05T10:35:24.945Z,9.70
2022-11-05T10:40:54.985Z,9.75
2022-11-05T10:46:06.394Z,9.73
2022-11-05T10:51:08.876Z,9.75
2022-11-05T10:56:34.744Z,9.79
2022-11-05T11:01:36.915Z,9.87
2022-11-05T11:06:48.090Z,9.97
2022-11-05T11:11:57.019Z,10.01
2022-11-05T11:17:29.974Z,10.00
2022-11-05T11:22:31.852Z,9.96
2022-11-05T11:27:34.853Z,10.01
2022-11-05T11:32:39.393Z,10.02
2022-11-05T11:50:33.340Z,10.15
2022-11-05T11:55:35.219Z,10.08
2022-11-05T12:00:47.544Z,10.00
2022-11-05T12:06:06.329Z,9.93
2022-11-05T12:11:21.509Z,9.89
2022-11-05T12:16:34.647Z,9.83
2022-11-05T12:22:04.686Z,9.86
2022-11-05T12:27:39.125Z,10.02
2022-11-05T12:32:49.397Z,10.14
2022-11-05T12:38:16.264Z,10.14
2022-11-05T12:43:52.138Z,10.17
2022-11-05T12:49:01.762Z,10.19
2022-11-05T12:54:29.477Z,10.27
2022-11-05T12:59:43.642Z,10.31
2022-11-05T13:05:27.910Z,10.33
2022-11-05T13:10:50.983Z,10.25
2022-11-05T13:16:21.021Z,10.25
2022-11-05T13:21:26.329Z,10.27
2022-11-05T13:26:51.365Z,10.30
2022-11-05T13:32:12.025Z,10.31
2022-11-05T13:37:36.124Z,10.33
2022-11-05T13:43:11.341Z,10.30
2022-11-05T13:48:22.684Z,10.28
2022-11-05T13:54:02.351Z,10.30
2022-11-05T13:59:51.093Z,10.36
2022-11-05T14:05:01.707Z,10.42
2022-11-05T14:10:21.702Z,10.44
2022-11-05T14:15:29.134Z,10.42
2022-11-05T14:20:30.993Z,10.40
2022-11-05T14:25:36.041Z,10.37
2022-11-05T14:30:44.089Z,10.39
2022-11-05T14:35:46.035Z,10.43
2022-11-05T14:40:48.835Z,10.44
2022-11-05T14:46:08.431Z,10.40
2022-11-05T14:51:24.438Z,10.38
2022-11-05T14:56:26.422Z,10.37
2022-11-05T15:01:34.186Z,10.33
2022-11-05T15:06:37.030Z,10.27
2022-11-05T15:12:15.485Z,10.23
2022-11-05T15:17:33.322Z,10.22
2022-11-05T15:22:43.673Z,10.19
2022-11-05T15:28:05.389Z,10.16
2022-11-05T15:33:22.008Z,10.15
2022-11-05T15:38:27.007Z,10.10
2022-11-05T15:43:29.089Z,10.05
2022-11-05T15:48:31.844Z,10.04
2022-11-05T15:54:08.375Z,10.07
2022-11-05T15:59:29.716Z,10.13
2022-11-05T16:04:35.176Z,10.13
2022-11-05T16:09:40.738Z,10.12
2022-11-05T16:14:42.957Z,10.08
2022-11-05T16:19:46.214Z,10.06
2022-11-05T16:24:49.058Z,10.07
2022-11-05T16:29:56.349Z,10.05
2022-11-05T16:34:58.421Z,10.00
2022-11-05T16:40:00.600Z,10.00
2022-11-05T16:45:02.443Z,9.97
2022-11-05T16:50:21.047Z,9.95
2022-11-05T16:55:23.339Z,9.96
2022-11-05T17:00:26.442Z,9.97
2022-11-05T17:05:30.535Z,9.99
2022-11-05T17:10:32.384Z,10.02
2022-11-05T17:15:37.302Z,10.02
2022-11-05T17:20:43.847Z,9.98
2022-11-05T17:26:01.224Z,9.96
2022-11-05T17:31:05.219Z,9.95
2022-11-05T17:36:09.521Z,9.95
2022-11-05T17:41:22.227Z,9.91
2022-11-05T17:46:25.019Z,9.86
2022-11-05T17:51:26.896Z,9.81
2022-11-05T17:56:34.425Z,9.78
2022-11-05T18:01:43.357Z,9.85
2022-11-05T18:06:45.471Z,10.06
2022-11-05T18:11:47.309Z,10.15
2022-11-05T18:16:50.314Z,10.33
2022-11-05T18:21:52.185Z,10.42
2022-11-05T18:26:54.169Z,10.46
2022-11-05T18:31:56.024Z,10.46
2022-11-05T18:36:57.919Z,10.49
2022-11-05T18:41:59.798Z,10.55
2022-11-05T18:47:01.781Z,10.59
2022-11-05T18:52:04.678Z,10.60
2022-11-05T18:57:06.560Z,10.33
2022-11-05T19:02:10.702Z,10.12
2022-11-05T19:07:12.673Z,10.00
2022-11-05T19:12:14.542Z,9.88
2022-11-05T19:17:16.422Z,9.76
2022-11-05T19:22:18.298Z,9.68
2022-11-05T19:27:20.193Z,9.63
2022-11-05T19:32:22.108Z,9.56
2022-11-05T19:37:23.923Z,9.49
2022-11-05T19:42:27.038Z,9.43
2022-11-05T19:47:28.915Z,9.37
2022-11-05T19:52:30.722Z,9.32
2022-11-05T19:57:36.767Z,9.27
2022-11-05T20:02:38.621Z,9.24
2022-11-05T20:07:41.122Z,9.20
2022-11-05T20:12:42.855Z,9.18
2022-11-05T20:17:51.477Z,9.14
2022-11-05T20:22:53.341Z,9.10
2022-11-05T20:27:56.719Z,9.10
2022-11-05T20:32:58.612Z,9.08
2022-11-05T20:38:00.485Z,9.04
2022-11-05T20:43:02.364Z,8.99
2022-11-05T20:48:04.378Z,8.94
2022-11-05T20:53:06.329Z,8.89
2022-11-05T20:58:08.207Z,8.85
2022-11-05T21:03:09.937Z,8.80
2022-11-05T21:08:12.011Z,8.77
2022-11-05T21:13:15.309Z,8.76
2022-11-05T21:18:18.377Z,8.75
2022-11-05T21:23:20.355Z,8.72
2022-11-05T21:28:22.323Z,8.68
2022-11-05T21:33:24.214Z,8.63
2022-11-05T21:38:26.098Z,8.58
2022-11-05T21:43:28.103Z,8.52
2022-11-05T21:48:31.183Z,8.49
2022-11-05T21:53:51.693Z,8.41
2022-11-05T21:59:12.396Z,8.33
2022-11-05T22:04:14.281Z,8.25
2022-11-05T22:09:20.158Z,8.21
2022-11-05T22:14:25.103Z,8.17
2022-11-05T22:19:27.290Z,8.14
2022-11-05T22:24:30.743Z,8.15
2022-11-05T22:29:32.922Z,8.15
2022-11-05T22:34:34.750Z,8.17
2022-11-05T22:39:37.256Z,8.20
2022-11-05T22:44:39.131Z,8.22
2022-11-05T22:49:40.931Z,8.29
2022-11-05T22:54:42.885Z,8.33
2022-11-05T22:59:44.762Z,8.32
2022-11-05T23:04:46.746Z,8.32
2022-11-05T23:10:07.462Z,8.33
2022-11-05T23:15:30.229Z,8.26
2022-11-05T23:20:51.258Z,8.12
2022-11-05T23:25:57.854Z,7.98
2022-11-05T23:31:18.565Z,7.92
2022-11-05T23:36:46.549Z,7.81
2022-11-05T23:42:23.496Z,7.62
2022-11-05T23:47:45.807Z,7.52
2022-11-05T23:52:47.683Z,7.49
2022-11-05T23:57:50.378Z,7.41
